Carajás Airport
SBCJ : rendu visible

Aérodrome :











RETROUVEZ-NOUS SUR...

 
LOGIN :

S'inscrire | Disclaimer

   EN    FR    IT 

 









Légende :    VFR   VFR Marginal   IFR   IFR Intensif   IFR Très Intensif
Visi : 
Plafond : 
>= 8 km
>= 3000ft
5 à 8 km
1000 à 3000 ft
1500m à 5 km
500 à 1000 ft
800 à 1500m
200 à 500 ft
< 800m
< 200 ft
Symboles :   Orages  Brouillard  Fortes neiges  Fortes précipitations  Vent > 20 kt






- Altitude de l'aérodrome : 2064 ft
- Code IATA : CKS


SBCJ - Carajás

DERNIER METAR :
  • 271800Z 03002KT 5000 FU SCT027 28/21 Q1011

METARs EXPIRÉS :
  • 271700Z 03004KT 5000 FU SCT019 28/21 Q1012
  • 271600Z 35004KT 5000 FU SCT017 27/21 Q1014

TAF TAF SBCJ
Valide du 27 à 18h jusqu'au 28 à 06h UTC


271500Z 2718/2806 05007KT 7000 SCT025 FEW030TCU TX28/2718Z TN22/2806Z
PROB40 2718/2721 5000 FU
BECMG 2721/2722 00000KT 6000 NSC
PROB40
TEMPO 2722/2806 4000 FU RMK PHN
FIR SBAZ / Amérique du Sud



MET'MAP, la Météo Aéronautique d'un coup d'oeil ! - Copyright ORBIFLY Décembre 2007 - Disclaimer

ORBIFLY MET'MAP TEAM :

Programmation & Développement : Alexandra Zaïnal
Sur une idée originale de : Baudouin d'Aumeries
Assistance à la programmation : Marc-Olivier Méhu
Soutien technique & logistique : Manuel Goepfert

Contact : metmap@orbifly.com




SOURCES & CREDITS :

   NOAA       Earth
Advisory